Time;durP1;ratioP1;P1;durP2;ratioP2;P2;SDS_P1;SDS_P2;PMS_P1;PMS_P2;Temp;Humidity;BMP_temperature;BMP_pressure;BME280_temperature;BME280_humidity;BME280_pressure;Samples;Min_cycle;Max_cycle;Signal;HPM_P1;HPM_P2
2023/04/23 00:00:11;;;;;;;1719.78;619.63;;;9.00;99.90;;;;;;4883821;29;20053;-75
2023/04/23 00:02:38;;;;;;;1838.72;773.50;;;9.00;99.90;;;;;;4900300;29;20108;-75
2023/04/23 00:05:05;;;;;;;1999.90;999.90;;;8.90;99.90;;;;;;4900121;29;20056;-75
2023/04/23 00:07:34;;;;;;;1999.90;999.90;;;9.00;99.90;;;;;;4899423;29;20053;-74
2023/04/23 00:10:04;;;;;;;1999.90;413.00;;;9.00;99.90;;;;;;4900505;29;20076;-74
2023/04/23 00:12:31;;;;;;;1999.90;584.55;;;9.00;99.90;;;;;;4899078;29;20084;-74
2023/04/23 00:14:57;;;;;;;1999.90;999.90;;;9.00;99.90;;;;;;4899286;29;20438;-74
2023/04/23 00:17:23;;;;;;;1999.90;999.90;;;9.00;99.90;;;;;;4899434;29;20529;-74
2023/04/23 00:19:48;;;;;;;1948.47;795.35;;;8.90;99.90;;;;;;4898938;29;20060;-74
2023/04/23 00:22:15;;;;;;;1674.88;369.65;;;9.00;1.00;;;;;;4897800;29;20048;-74
2023/04/23 00:24:41;;;;;;;1999.90;999.90;;;9.00;99.90;;;;;;4899825;29;20048;-74
2023/04/23 00:27:07;;;;;;;1949.88;450.85;;;9.00;99.90;;;;;;4899547;29;20048;-74
2023/04/23 00:29:33;;;;;;;1939.85;421.40;;;8.90;99.90;;;;;;4899105;29;20068;-74
2023/04/23 00:31:59;;;;;;;1815.88;826.33;;;9.00;99.90;;;;;;4899916;29;20390;-75
2023/04/23 00:34:25;;;;;;;1999.90;473.48;;;9.30;99.90;;;;;;4899324;29;20506;-74
2023/04/23 00:36:51;;;;;;;1978.47;508.30;;;8.90;99.90;;;;;;4899047;29;20048;-75
2023/04/23 00:39:17;;;;;;;1999.90;415.90;;;8.90;99.90;;;;;;4899506;29;20048;-74
2023/04/23 00:41:43;;;;;;;1999.90;826.40;;;8.90;1.00;;;;;;4899881;29;20052;-74
2023/04/23 00:44:09;;;;;;;1999.90;999.90;;;8.90;99.90;;;;;;4899524;29;20072;-74
2023/04/23 00:46:36;;;;;;;1999.90;999.90;;;8.90;99.90;;;;;;4899556;29;20523;-74
2023/04/23 00:49:02;;;;;;;1999.90;999.90;;;8.80;99.90;;;;;;4899320;29;20553;-75
2023/04/23 00:51:28;;;;;;;1999.90;247.68;;;9.20;1.00;;;;;;4898241;29;20466;-74
2023/04/23 00:53:54;;;;;;;1999.90;999.90;;;8.80;99.90;;;;;;4882211;29;20049;-74
2023/04/23 00:56:22;;;;;;;1999.90;322.25;;;8.80;1.00;;;;;;4898029;29;20127;-74
2023/04/23 00:58:48;;;;;;;;;;;8.70;1.00;;;;;;4898816;29;20509;-74
2023/04/23 01:01:14;;;;;;;1321.60;528.50;;;8.70;1.00;;;;;;4898128;29;19924;-74
2023/04/23 01:03:42;;;;;;;1887.38;281.33;;;8.80;1.00;;;;;;4898106;29;20100;-74
2023/04/23 01:06:08;;;;;;;1999.90;999.90;;;9.00;1.00;;;;;;4899419;29;20048;-75
2023/04/23 01:08:35;;;;;;;1999.90;999.90;;;8.80;1.00;;;;;;4896750;29;20417;-75
2023/04/23 01:11:02;;;;;;;1909.93;490.43;;;8.70;1.00;;;;;;4899448;29;20097;-74
2023/04/23 01:13:29;;;;;;;1999.90;999.90;;;8.70;1.00;;;;;;4898623;29;20345;-74
2023/04/23 01:15:55;;;;;;;1740.53;759.90;;;8.60;1.00;;;;;;4898252;29;20052;-74
2023/04/23 01:18:23;;;;;;;1999.90;999.90;;;8.70;1.00;;;;;;4897422;29;20057;-74
2023/04/23 01:20:49;;;;;;;1795.32;582.25;;;8.60;1.00;;;;;;4899210;29;20056;-74
2023/04/23 01:23:15;;;;;;;1933.70;813.10;;;8.60;1.00;;;;;;4897999;29;20512;-74
2023/04/23 01:25:42;;;;;;;1999.90;412.85;;;8.80;99.90;;;;;;4889088;29;20049;-74
2023/04/23 01:28:09;;;;;;;1657.90;651.35;;;8.90;99.90;;;;;;4878769;29;20462;-74
2023/04/23 01:30:35;;;;;;;1999.90;999.90;;;8.50;99.90;;;;;;4878609;29;20100;-75
2023/04/23 01:33:01;;;;;;;1951.38;606.25;;;8.60;1.00;;;;;;4880061;29;20089;-75
2023/04/23 01:35:28;;;;;;;1999.90;999.90;;;8.90;1.00;;;;;;4893534;29;20048;-74
2023/04/23 01:37:55;;;;;;;1999.90;999.90;;;8.50;1.00;;;;;;4896702;29;20115;-74
2023/04/23 01:40:21;;;;;;;1999.90;999.90;;;8.60;1.00;;;;;;4898285;29;20056;-74
2023/04/23 01:42:48;;;;;;;1950.55;306.08;;;10.00;1.00;;;;;;4898191;29;20045;-74
2023/04/23 01:45:14;;;;;;;1999.90;999.90;;;8.60;1.00;;;;;;4898267;29;20123;-77
2023/04/23 01:47:40;;;;;;;1999.90;999.90;;;8.70;1.00;;;;;;4898175;29;20068;-74
2023/04/23 01:50:07;;;;;;;1999.90;250.10;;;8.60;99.90;;;;;;4897624;29;20421;-74
2023/04/23 01:52:33;;;;;;;1686.28;381.98;;;8.70;1.00;;;;;;4897332;29;20052;-74
2023/04/23 01:55:00;;;;;;;1999.90;600.55;;;8.70;1.00;;;;;;4897575;29;20124;-74
2023/04/23 01:57:26;;;;;;;1661.30;613.60;;;8.30;1.00;;;;;;4898033;29;20060;-74
2023/04/23 02:00:07;;;;;;;1938.88;669.72;;;8.60;1.00;;;;;;4898336;29;20052;-74
2023/04/23 02:02:33;;;;;;;1999.90;443.25;;;8.70;1.00;;;;;;4896592;29;20098;-74
2023/04/23 02:05:03;;;;;;;1986.30;803.35;;;8.60;1.00;;;;;;4898106;29;20056;-74
2023/04/23 02:07:32;;;;;;;1999.90;231.00;;;8.70;1.00;;;;;;4896225;29;20053;-74
2023/04/23 02:09:58;;;;;;;1512.30;207.95;;;8.80;1.00;;;;;;4898095;29;20048;-74
2023/04/23 02:12:25;;;;;;;1999.90;342.85;;;8.40;1.00;;;;;;4897510;29;20398;-74
2023/04/23 02:14:51;;;;;;;1999.90;999.90;;;9.60;1.00;;;;;;4898082;29;20059;-74
2023/04/23 02:17:19;;;;;;;1999.90;999.90;;;8.70;1.00;;;;;;4897688;29;20062;-79
2023/04/23 02:19:45;;;;;;;1999.90;301.85;;;8.70;1.00;;;;;;4898054;29;20053;-74
2023/04/23 02:22:10;;;;;;;1960.38;385.35;;;8.50;1.00;;;;;;4896836;29;20100;-74
2023/04/23 02:24:37;;;;;;;1999.90;657.70;;;8.40;1.00;;;;;;4897628;29;20095;-74
2023/04/23 02:27:03;;;;;;;1999.90;999.90;;;8.60;55.70;;;;;;4896264;29;20048;-74
2023/04/23 02:29:29;;;;;;;1999.90;999.90;;;8.50;1.00;;;;;;4897645;29;20079;-74
2023/04/23 02:31:55;;;;;;;1999.90;999.90;;;8.50;1.00;;;;;;4881201;29;20062;-74
2023/04/23 02:34:21;;;;;;;1999.90;999.90;;;8.30;1.00;;;;;;4897289;29;20083;-74
2023/04/23 02:36:46;;;;;;;1999.90;999.90;;;8.40;1.00;;;;;;4896840;29;20147;-74
2023/04/23 02:39:12;;;;;;;1999.90;999.90;;;8.20;1.00;;;;;;4881274;29;20453;-74
2023/04/23 02:41:39;;;;;;;1999.90;999.90;;;8.20;1.00;;;;;;4896153;29;20145;-74
2023/04/23 02:44:04;;;;;;;1999.90;999.90;;;8.30;1.00;;;;;;4897186;29;20498;-74
2023/04/23 02:46:30;;;;;;;1999.90;999.90;;;8.20;1.00;;;;;;4895999;29;20139;-75
2023/04/23 02:48:56;;;;;;;1999.90;999.90;;;8.20;1.00;;;;;;4897519;29;20057;-74
2023/04/23 02:51:22;;;;;;;1999.90;999.90;;;8.40;1.00;;;;;;4897265;29;20056;-74
2023/04/23 02:53:48;;;;;;;1999.90;999.90;;;8.20;1.00;;;;;;4896819;29;20116;-74
2023/04/23 02:56:13;;;;;;;1999.90;999.90;;;8.10;1.00;;;;;;4896201;29;20048;-74
2023/04/23 02:58:39;;;;;;;1999.90;999.90;;;8.20;1.00;;;;;;4896957;29;20077;-74
2023/04/23 03:01:05;;;;;;;1999.90;999.90;;;8.20;1.00;;;;;;4897357;29;20053;-74
2023/04/23 03:03:32;;;;;;;1853.60;389.33;;;8.30;34.70;;;;;;4895942;29;20057;-74
2023/04/23 03:05:58;;;;;;;1999.90;999.90;;;8.40;52.90;;;;;;4895956;29;20049;-74
2023/04/23 03:08:24;;;;;;;1999.90;999.90;;;8.60;1.00;;;;;;4895798;29;20506;-74
2023/04/23 03:10:50;;;;;;;1999.90;999.90;;;8.20;1.00;;;;;;4896342;29;20092;-74
2023/04/23 03:13:16;;;;;;;1999.90;999.90;;;8.50;1.00;;;;;;4896791;29;20424;-74
2023/04/23 03:15:41;;;;;;;1999.90;999.90;;;8.10;1.00;;;;;;4897048;29;20051;-74
2023/04/23 03:18:07;;;;;;;1891.63;790.58;;;8.00;59.60;;;;;;4897020;29;20045;-74
2023/04/23 03:20:36;;;;;;;1999.90;807.15;;;8.00;99.90;;;;;;4865025;29;20053;-74
2023/04/23 03:23:05;;;;;;;1999.90;999.90;;;8.20;97.70;;;;;;4896180;29;20044;-74
2023/04/23 03:25:32;;;;;;;1999.90;999.90;;;8.10;78.90;;;;;;4895565;29;20064;-75
2023/04/23 03:27:57;;;;;;;1999.90;999.90;;;8.20;99.90;;;;;;4899961;29;20135;-74
2023/04/23 03:30:23;;;;;;;1999.90;999.90;;;8.40;99.90;;;;;;4901272;29;20204;-74
2023/04/23 03:32:52;;;;;;;1999.90;999.90;;;8.20;99.90;;;;;;4900255;29;20052;-74
2023/04/23 03:35:17;;;;;;;1999.90;999.90;;;8.30;99.90;;;;;;4900893;29;20045;-74
2023/04/23 03:37:43;;;;;;;1999.90;999.90;;;8.20;99.90;;;;;;4898689;29;20041;-74
2023/04/23 03:40:09;;;;;;;1999.90;999.90;;;8.20;99.90;;;;;;4884193;29;20088;-74
2023/04/23 03:42:35;;;;;;;1999.90;999.90;;;8.10;99.90;;;;;;4900373;29;20136;-74
2023/04/23 03:45:01;;;;;;;1757.22;790.83;;;8.10;99.90;;;;;;4900952;29;20116;-74
2023/04/23 03:47:27;;;;;;;1999.90;999.90;;;;;;;;;;4899354;29;20065;-76
2023/04/23 03:49:54;;;;;;;1999.90;999.90;;;8.20;99.90;;;;;;4900729;29;20085;-74
2023/04/23 03:52:22;;;;;;;1773.60;776.45;;;8.30;99.90;;;;;;4899669;29;20092;-75
2023/04/23 03:54:47;;;;;;;1858.25;541.30;;;8.40;99.90;;;;;;4899289;29;20108;-74
2023/04/23 03:57:13;;;;;;;1999.90;268.25;;;8.60;99.90;;;;;;4900434;29;20048;-75
2023/04/23 03:59:39;;;;;;;1999.90;625.70;;;8.70;99.90;;;;;;4899051;29;20044;-75
2023/04/23 04:02:05;;;;;;;1999.90;999.90;;;8.60;99.90;;;;;;4900177;29;20044;-74
2023/04/23 04:04:31;;;;;;;1999.90;645.78;;;8.70;99.90;;;;;;4900028;29;20052;-74
2023/04/23 04:06:59;;;;;;;1877.30;776.13;;;9.00;99.90;;;;;;4898424;29;20064;-74
2023/04/23 04:09:25;;;;;;;1999.90;860.63;;;8.90;99.90;;;;;;4900584;29;20478;-75
2023/04/23 04:11:52;;;;;;;1999.90;837.95;;;8.70;99.90;;;;;;4898542;29;20048;-75
2023/04/23 04:14:19;;;;;;;1999.90;887.10;;;8.70;99.90;;;;;;4900336;29;20056;-75
2023/04/23 04:16:44;;;;;;;1999.90;536.45;;;9.00;99.90;;;;;;4898795;29;20055;-74
2023/04/23 04:19:10;;;;;;;1999.90;751.63;;;8.80;99.90;;;;;;4900175;29;20405;-75
2023/04/23 04:21:36;;;;;;;1961.90;360.13;;;11.10;96.80;;;;;;4899604;29;20135;-75
2023/04/23 04:24:03;;;;;;;1914.53;369.60;;;8.80;1.90;;;;;;4899444;29;20056;-75
2023/04/23 04:26:31;;;;;;;1999.90;999.90;;;8.70;99.90;;;;;;4884000;29;20051;-74
2023/04/23 04:28:58;;;;;;;1999.90;999.90;;;8.70;99.90;;;;;;4881222;29;20053;-74
2023/04/23 04:31:27;;;;;;;1999.90;598.43;;;9.40;99.90;;;;;;4881392;29;20112;-74
2023/04/23 04:33:56;;;;;;;1966.03;197.15;;;8.70;88.00;;;;;;4881540;29;20053;-74
2023/04/23 04:36:24;;;;;;;1999.90;781.50;;;8.90;99.90;;;;;;4899857;29;20047;-75
2023/04/23 04:38:57;;;;;;;1885.80;771.42;;;8.90;99.90;;;;;;4898724;29;20140;-75
2023/04/23 04:41:24;;;;;;;1999.90;428.40;;;8.90;99.90;;;;;;4898928;29;20060;-75
2023/04/23 04:43:50;;;;;;;1999.90;785.92;;;8.90;99.90;;;;;;4898084;29;20196;-75
2023/04/23 04:46:19;;;;;;;1999.90;999.90;;;8.90;99.90;;;;;;4900055;29;20059;-75
2023/04/23 04:48:48;;;;;;;1999.90;640.90;;;9.00;99.90;;;;;;4899096;29;20059;-75
2023/04/23 04:51:14;;;;;;;1999.90;658.05;;;9.10;99.90;;;;;;4899751;29;20052;-77
2023/04/23 04:53:40;;;;;;;1999.90;779.47;;;9.00;99.90;;;;;;4898289;29;20044;-75
2023/04/23 04:56:07;;;;;;;1999.90;671.78;;;9.10;99.90;;;;;;4898784;29;20056;-75
2023/04/23 04:58:32;;;;;;;1999.90;530.47;;;9.10;99.90;;;;;;4899322;29;20055;-75
2023/04/23 05:00:59;;;;;;;1999.90;881.53;;;9.20;99.90;;;;;;4882772;29;20533;-75
2023/04/23 05:03:25;;;;;;;1999.90;469.88;;;9.30;99.90;;;;;;4898897;29;20467;-75
2023/04/23 05:05:55;;;;;;;1999.90;904.30;;;9.20;99.90;;;;;;4899047;29;20056;-75
2023/04/23 05:08:21;;;;;;;1999.90;836.95;;;9.50;99.90;;;;;;4897218;29;20074;-75
2023/04/23 05:10:46;;;;;;;1999.90;686.38;;;8.50;99.90;;;;;;4898969;29;20545;-74
2023/04/23 05:13:12;;;;;;;1999.90;749.60;;;9.50;99.90;;;;;;4899168;29;20057;-74
2023/04/23 05:15:38;;;;;;;1999.90;792.78;;;9.50;99.90;;;;;;4898867;29;20045;-75
2023/04/23 05:18:04;;;;;;;1999.90;600.08;;;9.50;99.90;;;;;;4898784;29;20048;-75
2023/04/23 05:20:30;;;;;;;1999.90;786.70;;;9.50;99.90;;;;;;4899189;29;20057;-75
2023/04/23 05:22:58;;;;;;;1999.90;800.13;;;9.50;99.90;;;;;;4897905;29;20765;-75
2023/04/23 05:25:24;;;;;;;1999.90;999.90;;;9.70;99.90;;;;;;4891117;29;20049;-75
2023/04/23 05:27:50;;;;;;;1999.90;711.97;;;9.70;99.90;;;;;;4879650;29;20092;-75
2023/04/23 05:30:16;;;;;;;1999.90;386.95;;;9.60;99.90;;;;;;4879191;29;20056;-74
2023/04/23 05:32:42;;;;;;;1999.90;271.20;;;;;;;;;;4877818;29;20045;-75
2023/04/23 05:35:08;;;;;;;1999.90;432.80;;;9.70;99.90;;;;;;4891499;29;20049;-75
2023/04/23 05:37:33;;;;;;;1999.90;829.35;;;9.80;99.90;;;;;;4897555;29;20055;-74
2023/04/23 05:40:01;;;;;;;1999.90;511.73;;;;;;;;;;4897424;29;20081;-75
2023/04/23 05:42:27;;;;;;;1999.90;264.15;;;9.80;99.90;;;;;;4898341;29;20164;-75
2023/04/23 05:44:53;;;;;;;1999.90;443.65;;;9.90;99.90;;;;;;4898008;29;20052;-76
2023/04/23 05:47:18;;;;;;;1999.90;280.50;;;9.80;19.80;;;;;;4897992;29;20064;-75
2023/04/23 05:49:44;;;;;;;1999.90;346.90;;;9.80;71.20;;;;;;4896770;29;20045;-74
2023/04/23 05:52:10;;;;;;;1999.90;471.85;;;9.90;22.00;;;;;;4897725;29;20059;-74
2023/04/23 05:54:36;;;;;;;1999.90;419.60;;;9.80;82.30;;;;;;4898683;29;20052;-75
2023/04/23 05:57:02;;;;;;;1999.90;641.80;;;10.50;1.00;;;;;;4898088;29;20100;-74
2023/04/23 05:59:28;;;;;;;1999.90;676.40;;;10.00;1.00;;;;;;4898426;29;20048;-74
2023/04/23 06:01:53;;;;;;;1999.90;723.55;;;10.20;1.00;;;;;;4897841;29;20119;-75
2023/04/23 06:04:19;;;;;;;1999.90;762.67;;;10.30;1.00;;;;;;4898166;29;20048;-77
2023/04/23 06:06:45;;;;;;;1999.90;470.15;;;10.00;1.00;;;;;;4895951;29;20056;-77
2023/04/23 06:09:11;;;;;;;1999.90;272.95;;;10.10;1.00;;;;;;4898571;29;20041;-74
2023/04/23 06:11:37;;;;;;;1999.90;594.05;;;10.20;99.90;;;;;;4897253;29;20084;-74
2023/04/23 06:14:03;;;;;;;1999.90;248.13;;;10.30;99.90;;;;;;4897740;29;20048;-74
2023/04/23 06:16:29;;;;;;;1999.90;847.65;;;10.40;99.90;;;;;;4898049;29;20048;-74
2023/04/23 06:18:58;;;;;;;1999.90;618.60;;;10.40;99.90;;;;;;4897694;29;20087;-74
2023/04/23 06:21:24;;;;;;;1999.90;999.90;;;10.40;65.30;;;;;;4898024;29;20071;-74
2023/04/23 06:23:50;;;;;;;1999.90;999.90;;;10.60;1.00;;;;;;4895817;29;20045;-75
2023/04/23 06:26:16;;;;;;;1999.90;820.58;;;10.60;1.00;;;;;;4883401;29;20052;-74
2023/04/23 06:28:43;;;;;;;1999.90;447.88;;;10.70;99.90;;;;;;4878807;29;20450;-75
2023/04/23 06:31:09;;;;;;;1999.90;999.90;;;10.70;1.00;;;;;;4879320;29;20045;-74
2023/04/23 06:33:36;;;;;;;1999.90;635.53;;;10.70;99.90;;;;;;4877749;29;20056;-74
2023/04/23 06:36:06;;;;;;;1999.90;202.65;;;10.80;93.30;;;;;;4897026;29;20414;-74
2023/04/23 06:38:32;;;;;;;1999.90;647.97;;;10.80;1.00;;;;;;4896863;29;20053;-74
2023/04/23 06:40:58;;;;;;;1999.90;486.02;;;11.00;1.00;;;;;;4897710;29;20510;-74
2023/04/23 06:43:24;;;;;;;1999.90;376.08;;;11.10;99.90;;;;;;4897154;29;20056;-74
2023/04/23 06:45:49;;;;;;;1999.90;455.38;;;11.20;99.90;;;;;;4896120;29;20041;-75
2023/04/23 06:48:17;;;;;;;1999.90;619.15;;;11.20;99.90;;;;;;4897413;29;20085;-76
2023/04/23 06:50:43;;;;;;;1999.90;726.33;;;11.20;98.00;;;;;;4897386;29;20055;-74
2023/04/23 06:53:09;;;;;;;1999.90;773.55;;;11.30;1.00;;;;;;4896194;29;20446;-74
2023/04/23 06:55:34;;;;;;;1999.90;569.97;;;11.50;99.90;;;;;;4897526;29;20049;-74
2023/04/23 06:58:00;;;;;;;1999.90;519.47;;;11.40;1.00;;;;;;4896862;29;20585;-74
2023/04/23 07:00:26;;;;;;;1999.90;911.08;;;11.50;1.00;;;;;;4880510;29;20139;-75
2023/04/23 07:02:51;;;;;;;1999.90;999.90;;;11.60;99.90;;;;;;4895298;29;20052;-74
2023/04/23 07:05:18;;;;;;;1999.90;999.90;;;11.60;99.90;;;;;;4897228;29;20044;-74
2023/04/23 07:07:44;;;;;;;1999.90;999.90;;;11.70;99.90;;;;;;4896406;29;20048;-74
2023/04/23 07:10:11;;;;;;;1999.90;818.03;;;11.70;99.90;;;;;;4897115;29;20055;-74
2023/04/23 07:12:38;;;;;;;1999.90;652.28;;;11.80;98.20;;;;;;4896959;29;20048;-74
2023/04/23 07:15:05;;;;;;;1999.90;999.90;;;11.90;97.70;;;;;;4880417;29;20104;-74
2023/04/23 07:17:30;;;;;;;1988.20;159.82;;;12.00;73.80;;;;;;4897132;29;20142;-74
2023/04/23 07:19:56;;;;;;;1999.90;857.03;;;12.20;69.20;;;;;;4897001;29;20049;-74
2023/04/23 07:22:24;;;;;;;1999.90;999.90;;;12.30;1.00;;;;;;4896462;29;20176;-74
2023/04/23 07:24:50;;;;;;;1999.90;999.90;;;12.30;1.00;;;;;;4893369;29;20041;-74
2023/04/23 07:27:15;;;;;;;1999.90;999.90;;;13.00;1.00;;;;;;4877700;29;20064;-74
2023/04/23 07:29:41;;;;;;;1999.90;999.90;;;13.50;99.90;;;;;;4877742;29;20052;-74
2023/04/23 07:32:07;;;;;;;1999.90;999.90;;;13.80;99.90;;;;;;4878055;29;20394;-75
2023/04/23 07:34:33;;;;;;;1999.90;999.90;;;13.90;99.90;;;;;;4884367;29;20453;-75
2023/04/23 07:36:58;;;;;;;1999.90;999.90;;;14.20;99.90;;;;;;4895801;29;20061;-76
2023/04/23 07:39:24;;;;;;;1999.90;999.90;;;14.60;99.90;;;;;;4896968;29;20490;-74
2023/04/23 07:41:50;;;;;;;1999.90;999.90;;;14.90;99.90;;;;;;4895330;29;20131;-80
2023/04/23 07:44:16;;;;;;;1999.90;999.90;;;14.90;99.90;;;;;;4896704;29;20072;-74
2023/04/23 07:46:41;;;;;;;1999.90;999.90;;;15.20;99.90;;;;;;4896797;29;20045;-75
2023/04/23 07:49:07;;;;;;;1999.90;999.90;;;15.30;99.90;;;;;;4895653;29;20129;-74
2023/04/23 07:51:33;;;;;;;1999.90;999.90;;;14.80;99.90;;;;;;4896844;29;20077;-75
2023/04/23 07:53:58;;;;;;;1999.90;999.90;;;15.10;99.90;;;;;;4895715;29;20128;-74
2023/04/23 07:56:24;;;;;;;1999.90;999.90;;;15.90;99.90;;;;;;4895726;29;20077;-75
2023/04/23 07:58:52;;;;;;;1999.90;999.90;;;16.30;99.90;;;;;;4896867;29;20052;-75
2023/04/23 08:01:18;;;;;;;1999.90;999.90;;;16.60;99.90;;;;;;4896882;29;20486;-74
2023/04/23 08:03:44;;;;;;;1999.90;999.90;;;17.00;99.90;;;;;;4896780;29;20080;-74
2023/04/23 08:06:11;;;;;;;1999.90;999.90;;;17.00;99.90;;;;;;4896484;29;20053;-74
2023/04/23 08:08:37;;;;;;;1999.90;999.90;;;17.20;99.90;;;;;;4895929;29;20056;-74
2023/04/23 08:11:05;;;;;;;1999.90;999.90;;;17.10;99.90;;;;;;4896519;29;20401;-74
2023/04/23 08:13:31;;;;;;;1999.90;999.90;;;17.20;99.90;;;;;;4898578;29;20048;-74
2023/04/23 08:15:56;;;;;;;1999.90;999.90;;;17.40;99.90;;;;;;4900004;29;20048;-74
2023/04/23 08:18:22;;;;;;;1999.90;999.90;;;17.30;99.90;;;;;;4899218;29;20051;-74
2023/04/23 08:20:48;;;;;;;1999.90;999.90;;;17.50;99.90;;;;;;4900251;29;20049;-74
2023/04/23 08:23:14;;;;;;;1442.32;554.47;;;18.00;99.90;;;;;;4898993;29;20056;-74
2023/04/23 08:25:40;;;;;;;1999.90;999.90;;;18.40;93.50;;;;;;4900005;29;20056;-75
2023/04/23 08:28:06;;;;;;;1999.90;999.90;;;18.50;81.90;;;;;;4898294;29;20049;-74
2023/04/23 08:30:31;;;;;;;1999.90;999.90;;;18.50;77.50;;;;;;4900219;29;20089;-75
2023/04/23 08:32:57;;;;;;;1999.90;797.13;;;18.90;81.10;;;;;;4883043;29;20052;-75
2023/04/23 08:35:24;;;;;;;1999.90;999.90;;;19.10;64.90;;;;;;4899877;29;20040;-74
2023/04/23 08:37:49;;;;;;;1999.90;999.90;;;19.60;67.80;;;;;;4899006;29;20048;-74
2023/04/23 08:40:15;;;;;;;1999.90;999.90;;;20.10;62.60;;;;;;4898263;29;20505;-74
2023/04/23 08:42:47;;;;;;;1999.90;999.90;;;20.30;47.10;;;;;;4899828;29;20056;-75
2023/04/23 08:45:13;;;;;;;1999.90;999.90;;;20.30;37.20;;;;;;4899260;29;20048;-74
2023/04/23 08:47:43;;;;;;;1999.90;770.13;;;20.70;29.90;;;;;;4899416;29;20056;-75
2023/04/23 08:50:15;;;;;;;1999.90;999.90;;;20.30;31.20;;;;;;4899465;29;20044;-74
2023/04/23 08:52:45;;;;;;;1999.90;965.25;;;20.10;37.30;;;;;;4897754;29;20053;-75
2023/04/23 08:55:13;;;;;;;1999.90;999.90;;;20.40;34.10;;;;;;4899521;29;20407;-75
2023/04/23 08:57:40;;;;;;;1999.90;931.40;;;20.90;42.30;;;;;;4899384;29;20052;-75
2023/04/23 09:00:10;;;;;;;1999.90;816.60;;;21.70;24.50;;;;;;4899414;29;20470;-74
2023/04/23 09:02:38;;;;;;;1999.90;573.92;;;21.00;17.60;;;;;;4882632;29;20144;-74
2023/04/23 09:05:04;;;;;;;1999.90;835.22;;;20.90;21.50;;;;;;4899151;29;20079;-74
2023/04/23 09:07:30;;;;;;;1999.90;999.90;;;20.80;18.30;;;;;;4882006;29;20052;-74
2023/04/23 09:09:56;;;;;;;1999.90;999.90;;;20.70;12.80;;;;;;4899537;29;20054;-75
2023/04/23 09:12:22;;;;;;;1999.90;999.90;;;20.30;17.70;;;;;;4897886;29;20082;-75
2023/04/23 09:14:50;;;;;;;1999.90;999.90;;;20.10;24.90;;;;;;4882715;29;20087;-75
2023/04/23 09:17:17;;;;;;;1999.90;215.70;;;20.60;18.30;;;;;;4898488;29;20517;-74
2023/04/23 09:19:44;;;;;;;1999.90;787.40;;;20.80;17.60;;;;;;4899026;29;20054;-74
2023/04/23 09:22:10;;;;;;;1999.90;792.70;;;21.10;15.50;;;;;;4896931;29;20089;-74
2023/04/23 09:24:35;;;;;;;1999.90;573.50;;;20.30;7.50;;;;;;4895585;29;20040;-75
2023/04/23 09:27:02;;;;;;;1999.90;686.63;;;20.20;12.90;;;;;;4880006;29;20108;-75
2023/04/23 09:29:29;;;;;;;1999.90;999.90;;;19.70;14.00;;;;;;4879201;29;20053;-75
2023/04/23 09:32:06;;;;;;;1999.90;879.25;;;19.90;20.10;;;;;;4879168;29;20192;-75
2023/04/23 09:34:34;;;;;;;1999.90;899.33;;;19.20;16.20;;;;;;4886660;29;20091;-74
2023/04/23 09:37:00;;;;;;;1999.90;999.90;;;18.40;26.60;;;;;;4897191;29;20056;-74
2023/04/23 09:39:26;;;;;;;1999.90;751.90;;;18.40;26.00;;;;;;4897557;29;20538;-74
2023/04/23 09:41:52;;;;;;;1999.90;618.05;;;18.00;32.60;;;;;;4897403;29;20382;-74
2023/04/23 09:44:21;;;;;;;1999.90;962.75;;;18.20;30.50;;;;;;4896965;29;20057;-74
2023/04/23 09:46:47;;;;;;;1999.90;895.90;;;18.70;28.10;;;;;;4898569;29;20143;-75
2023/04/23 09:49:14;;;;;;;1999.90;907.45;;;18.20;27.00;;;;;;4898168;29;20094;-74
2023/04/23 09:51:47;;;;;;;1999.90;999.90;;;17.90;30.90;;;;;;4898628;29;20541;-74
2023/04/23 09:54:14;;;;;;;1999.90;999.90;;;17.80;38.90;;;;;;4898327;29;20059;-74
2023/04/23 09:56:47;;;;;;;1999.90;855.77;;;18.00;36.50;;;;;;4898594;29;20051;-74
2023/04/23 09:59:27;;;;;;;1999.90;855.10;;;17.80;31.30;;;;;;4897994;29;20317;-74
2023/04/23 10:01:53;;;;;;;1999.90;999.90;;;17.70;31.90;;;;;;4898281;29;20044;-74
2023/04/23 10:04:23;;;;;;;1999.90;929.65;;;17.60;37.40;;;;;;4898219;29;20394;-74
2023/04/23 10:06:56;;;;;;;1999.90;999.90;;;17.20;36.70;;;;;;4897066;29;20478;-74
2023/04/23 10:09:23;;;;;;;1999.90;999.90;;;17.10;40.00;;;;;;4898026;29;20052;-74
2023/04/23 10:11:54;;;;;;;1999.90;380.25;;;17.00;49.50;;;;;;4897899;29;20409;-74
2023/04/23 10:14:21;;;;;;;1999.90;999.90;;;17.30;43.10;;;;;;4897903;29;20052;-74
2023/04/23 10:16:50;;;;;;;1999.90;769.80;;;17.40;40.20;;;;;;4897727;29;20540;-74
2023/04/23 10:19:22;;;;;;;1999.90;980.78;;;18.30;28.90;;;;;;4897643;29;20414;-74
2023/04/23 10:21:59;;;;;;;1999.90;959.70;;;19.90;24.50;;;;;;4896988;29;20490;-74
2023/04/23 10:24:28;;;;;;;1999.90;530.55;;;20.50;7.20;;;;;;4897560;29;20059;-77
2023/04/23 10:26:59;;;;;;;1999.90;999.90;;;21.40;1.00;;;;;;4879111;29;20071;-74
2023/04/23 10:29:30;;;;;;;1999.90;999.90;;;21.90;1.00;;;;;;4878960;29;20080;-74
2023/04/23 10:32:01;;;;;;;1999.90;231.13;;;21.20;1.00;;;;;;4879114;29;20112;-74
2023/04/23 10:34:28;;;;;;;1999.90;921.35;;;20.80;1.00;;;;;;4884926;29;20044;-74
2023/04/23 10:36:56;;;;;;;1999.90;701.88;;;20.60;1.00;;;;;;4896870;29;20100;-75
2023/04/23 10:39:23;;;;;;;1999.90;827.78;;;19.90;1.00;;;;;;4896538;29;20382;-74
2023/04/23 10:41:51;;;;;;;1999.90;999.90;;;19.60;1.00;;;;;;4897529;29;20052;-74
2023/04/23 10:44:20;;;;;;;1999.90;999.90;;;19.40;1.00;;;;;;4897134;29;20056;-74
2023/04/23 10:46:53;;;;;;;1999.90;999.90;;;20.50;1.00;;;;;;4896018;29;20075;-75
2023/04/23 10:49:21;;;;;;;1999.90;689.80;;;21.20;1.00;;;;;;4897285;29;20053;-73
2023/04/23 10:51:47;;;;;;;1999.90;999.90;;;21.90;1.00;;;;;;4896716;29;20056;-73
2023/04/23 10:54:15;;;;;;;1999.90;795.95;;;21.30;1.00;;;;;;4897677;29;20183;-74
2023/04/23 10:56:41;;;;;;;1999.90;388.05;;;20.90;1.00;;;;;;4897511;29;20595;-75
2023/04/23 10:59:22;;;;;;;1999.90;830.10;;;20.70;1.00;;;;;;4896539;29;20056;-72
2023/04/23 11:01:49;;;;;;;1999.90;999.90;;;20.90;1.00;;;;;;4897280;29;20140;-73
2023/04/23 11:04:22;;;;;;;1999.90;592.38;;;20.90;1.00;;;;;;4897457;29;20059;-75
2023/04/23 11:06:47;;;;;;;1999.90;384.90;;;20.70;1.00;;;;;;4896354;29;20053;-73
2023/04/23 11:09:43;;;;;;;1999.90;999.90;;;20.00;1.00;;;;;;4897470;29;20383;-73
2023/04/23 11:12:25;;;;;;;1999.90;369.42;;;20.00;1.00;;;;;;4897398;29;20063;-73
2023/04/23 11:14:56;;;;;;;1999.90;999.90;;;20.40;1.00;;;;;;4897377;29;20048;-73
2023/04/23 11:17:30;;;;;;;1999.90;999.90;;;21.00;1.00;;;;;;4896682;29;20076;-73
2023/04/23 11:20:09;;;;;;;1999.90;999.90;;;20.60;1.00;;;;;;4897261;29;20045;-74
2023/04/23 11:22:38;;;;;;;1999.90;999.90;;;19.80;1.00;;;;;;4896009;29;20075;-73
2023/04/23 11:25:07;;;;;;;1999.90;622.33;;;19.90;1.00;;;;;;4896950;29;20063;-73
2023/04/23 11:27:36;;;;;;;1999.90;999.90;;;19.90;1.00;;;;;;4896666;29;20103;-75
2023/04/23 11:30:02;;;;;;;1999.90;999.90;;;19.70;1.00;;;;;;4896028;29;20108;-73
2023/04/23 11:32:28;;;;;;;1999.90;999.90;;;19.90;1.00;;;;;;4896787;29;20056;-73
2023/04/23 11:34:56;;;;;;;1999.90;999.90;;;19.70;1.00;;;;;;4896811;29;20135;-75
2023/04/23 11:37:23;;;;;;;;;;;19.50;1.00;;;;;;4896313;29;20060;-74
2023/04/23 11:39:50;;;;;;;1999.90;999.90;;;19.30;1.00;;;;;;4896224;29;20415;-73
2023/04/23 11:42:18;;;;;;;1999.90;999.90;;;19.60;1.00;;;;;;4896000;29;20091;-75
2023/04/23 11:44:45;;;;;;;1999.90;999.90;;;20.30;1.00;;;;;;4896832;29;20101;-74
2023/04/23 11:47:13;;;;;;;1999.90;999.90;;;21.10;1.00;;;;;;4896818;29;20521;-74
2023/04/23 11:49:39;;;;;;;;;;;21.50;1.00;;;;;;4900886;29;20052;-75
2023/04/23 11:52:05;;;;;;;1999.90;999.90;;;20.80;1.00;;;;;;4900000;29;19994;-75
2023/04/23 11:54:32;;;;;;;1999.90;999.90;;;21.10;1.00;;;;;;4900390;29;20494;-75
2023/04/23 11:56:58;;;;;;;1999.90;999.90;;;20.80;1.00;;;;;;4899811;29;20045;-73
2023/04/23 11:59:24;;;;;;;1999.90;999.90;;;20.90;1.00;;;;;;4900371;29;20486;-75
2023/04/23 12:01:56;;;;;;;1999.90;999.90;;;20.40;1.00;;;;;;4899279;29;20131;-74
2023/04/23 12:04:24;;;;;;;1999.90;590.90;;;21.20;1.00;;;;;;4900615;29;20122;-74
2023/04/23 12:06:52;;;;;;;1999.90;999.90;;;21.50;1.00;;;;;;4899545;29;20044;-74